createdAt,value
2022-11-14T00:04:08.667Z,6.90
2022-11-14T00:10:29.240Z,6.90
2022-11-14T00:16:50.093Z,6.80
2022-11-14T00:23:11.093Z,6.70
2022-11-14T00:29:31.946Z,6.70
2022-11-14T00:35:57.042Z,6.50
2022-11-14T00:42:18.191Z,6.40
2022-11-14T00:48:38.811Z,6.30
2022-11-14T00:54:59.834Z,6.10
2022-11-14T01:01:20.812Z,6.10
2022-11-14T01:07:41.675Z,6.10
2022-11-14T01:14:02.391Z,6.10
2022-11-14T01:20:23.203Z,5.80
2022-11-14T01:26:43.925Z,5.60
2022-11-14T01:33:05.349Z,5.60
2022-11-14T01:39:29.492Z,5.60
2022-11-14T01:45:58.230Z,5.60
2022-11-14T01:52:26.795Z,5.60
2022-11-14T01:58:53.439Z,5.40
2022-11-14T02:05:16.878Z,5.20
2022-11-14T02:11:43.629Z,5.00
2022-11-14T02:18:05.874Z,4.80
2022-11-14T02:24:26.363Z,4.80
2022-11-14T02:30:47.181Z,4.70
2022-11-14T02:37:08.171Z,4.80
2022-11-14T02:43:28.965Z,4.70
2022-11-14T02:49:49.956Z,4.80
2022-11-14T02:56:10.939Z,4.80
2022-11-14T03:02:31.938Z,4.80
2022-11-14T03:08:52.824Z,4.70
2022-11-14T03:15:13.948Z,4.60
2022-11-14T03:21:34.892Z,4.60
2022-11-14T03:27:55.638Z,4.60
2022-11-14T03:34:16.195Z,4.70
2022-11-14T03:40:40.426Z,4.80
2022-11-14T03:47:01.376Z,4.70
2022-11-14T03:53:22.151Z,4.80
2022-11-14T03:59:42.954Z,4.90
2022-11-14T04:06:03.901Z,5.00
2022-11-14T04:12:24.877Z,5.00
2022-11-14T04:18:45.826Z,5.00
2022-11-14T04:25:07.905Z,5.10
2022-11-14T04:31:28.611Z,5.20
2022-11-14T04:37:49.609Z,5.40
2022-11-14T04:44:10.397Z,5.50
2022-11-14T04:50:31.118Z,5.70
2022-11-14T04:56:51.762Z,5.60
2022-11-14T05:03:12.379Z,5.70
2022-11-14T05:09:33.312Z,5.90
2022-11-14T05:15:54.188Z,6.00
2022-11-14T05:22:15.060Z,6.10
2022-11-14T05:28:36.015Z,6.20
2022-11-14T05:34:56.665Z,6.20
2022-11-14T05:41:20.478Z,6.20
2022-11-14T05:47:41.025Z,6.30
2022-11-14T05:54:01.688Z,6.30
2022-11-14T06:00:22.670Z,6.50
2022-11-14T06:06:43.470Z,6.70
2022-11-14T06:13:04.382Z,7.00
2022-11-14T06:19:25.087Z,7.00
2022-11-14T06:25:45.661Z,7.10
2022-11-14T06:32:06.993Z,7.20
2022-11-14T06:38:29.227Z,7.20
2022-11-14T06:44:50.186Z,7.40
2022-11-14T06:51:12.603Z,7.60
2022-11-14T06:57:33.296Z,7.80
2022-11-14T07:03:54.628Z,8.10
2022-11-14T07:10:15.175Z,8.30
2022-11-14T07:16:36.457Z,8.70
2022-11-14T07:22:57.330Z,8.80
2022-11-14T07:29:18.388Z,8.90
2022-11-14T07:35:42.803Z,8.90
2022-11-14T07:42:03.380Z,9.20
2022-11-14T07:48:24.320Z,9.40
2022-11-14T07:54:45.208Z,9.30
2022-11-14T08:01:07.818Z,9.70
2022-11-14T08:07:28.818Z,9.90
2022-11-14T08:13:49.629Z,10.00
2022-11-14T08:20:10.876Z,9.90
2022-11-14T08:26:34.210Z,10.00
2022-11-14T08:32:55.037Z,9.90
2022-11-14T08:39:16.048Z,10.10
2022-11-14T08:45:36.693Z,10.20
2022-11-14T08:51:57.347Z,10.40
2022-11-14T08:58:18.113Z,10.70
2022-11-14T09:04:38.844Z,10.70
2022-11-14T09:11:05.882Z,11.00
2022-11-14T09:17:26.909Z,11.10
2022-11-14T09:23:48.546Z,11.30
2022-11-14T09:30:09.961Z,11.20
2022-11-14T09:36:30.658Z,11.50
2022-11-14T09:42:51.292Z,11.80
2022-11-14T09:49:37.899Z,12.00
2022-11-14T09:55:59.259Z,11.50
2022-11-14T10:02:29.550Z,11.30
2022-11-14T10:09:16.675Z,11.10
2022-11-14T10:16:01.353Z,11.10
2022-11-14T10:22:39.693Z,10.90
2022-11-14T10:29:28.619Z,11.20
2022-11-14T10:35:57.371Z,11.00
2022-11-14T10:42:37.277Z,10.70
2022-11-14T10:49:00.467Z,10.90
2022-11-14T10:55:37.186Z,10.80
2022-11-14T11:02:02.533Z,10.60
2022-11-14T11:08:44.127Z,10.70
2022-11-14T11:15:14.966Z,10.70
2022-11-14T11:21:48.855Z,10.60
2022-11-14T11:28:16.711Z,10.80
2022-11-14T11:34:37.680Z,10.70
2022-11-14T11:41:25.832Z,10.70
2022-11-14T11:48:01.825Z,10.80
2022-11-14T11:54:29.050Z,10.60
2022-11-14T12:00:57.189Z,10.70
2022-11-14T12:07:20.882Z,10.70
2022-11-14T12:14:00.019Z,10.70
2022-11-14T12:20:58.277Z,10.60
2022-11-14T12:27:25.266Z,10.60
2022-11-14T13:20:49.493Z,10.60
2022-11-14T13:28:00.230Z,10.50
2022-11-14T13:34:26.174Z,10.40
2022-11-14T13:41:28.073Z,10.30
2022-11-14T13:48:26.915Z,10.40
2022-11-14T13:54:51.363Z,10.30
2022-11-14T14:01:29.741Z,10.30
2022-11-14T14:07:59.365Z,10.30
2022-11-14T14:14:37.931Z,10.30
2022-11-14T14:21:03.676Z,10.20
2022-11-14T14:27:28.729Z,10.20
2022-11-14T14:33:51.653Z,10.10
2022-11-14T14:40:23.503Z,10.10
2022-11-14T14:46:44.660Z,10.00
2022-11-14T14:53:06.977Z,9.90
2022-11-14T14:59:30.365Z,9.80
2022-11-14T15:05:59.267Z,9.80
2022-11-14T15:12:20.645Z,9.70
2022-11-14T15:18:41.673Z,9.60
2022-11-14T15:25:15.021Z,9.50
2022-11-14T15:31:36.831Z,9.40
2022-11-14T15:44:54.178Z,9.40
2022-11-14T15:51:15.391Z,9.40
2022-11-14T15:57:37.477Z,9.20
2022-11-14T16:03:59.361Z,9.10
2022-11-14T16:10:22.703Z,9.10
2022-11-14T16:16:43.502Z,9.00
2022-11-14T16:23:05.485Z,9.00
2022-11-14T16:29:26.249Z,9.00
2022-11-14T16:35:47.170Z,9.00
2022-11-14T16:42:10.310Z,8.90
2022-11-14T16:48:31.188Z,9.10
2022-11-14T16:54:52.069Z,9.10
2022-11-14T17:01:21.233Z,9.00
2022-11-14T17:07:42.416Z,9.00
2022-11-14T17:14:03.160Z,8.90
2022-11-14T17:20:25.006Z,8.90
2022-11-14T17:26:46.030Z,8.90
2022-11-14T17:33:07.050Z,8.90
2022-11-14T17:39:28.824Z,8.80
2022-11-14T17:45:58.834Z,8.80
2022-11-14T17:52:19.802Z,8.90
2022-11-14T17:58:40.548Z,8.90
2022-11-14T18:05:01.261Z,8.90
2022-11-14T18:11:22.030Z,8.90
2022-11-14T18:17:42.735Z,8.80
2022-11-14T18:24:04.475Z,8.90
2022-11-14T18:30:41.096Z,8.90
2022-11-14T18:37:02.388Z,8.90
2022-11-14T18:43:23.648Z,8.80
2022-11-14T18:49:45.225Z,8.90
2022-11-14T18:56:08.128Z,9.00
2022-11-14T19:02:28.881Z,9.00
2022-11-14T19:08:49.576Z,9.00
2022-11-14T19:15:11.693Z,9.00
2022-11-14T19:21:32.939Z,9.00
2022-11-14T19:27:53.798Z,9.00
2022-11-14T19:34:15.173Z,8.90
2022-11-14T19:40:38.082Z,9.00
2022-11-14T19:46:58.708Z,9.00
2022-11-14T19:53:20.730Z,9.00
2022-11-14T19:59:41.677Z,8.90
2022-11-14T20:06:04.066Z,8.90
2022-11-14T20:12:25.161Z,8.70
2022-11-14T20:18:57.451Z,8.80
2022-11-14T20:25:20.077Z,8.90
2022-11-14T20:31:41.088Z,8.90
2022-11-14T20:38:04.553Z,8.80
2022-11-14T20:44:25.897Z,8.80
2022-11-14T20:50:47.239Z,8.80
2022-11-14T20:57:08.233Z,8.80
2022-11-14T21:03:29.186Z,8.70
2022-11-14T21:10:10.323Z,8.70
2022-11-14T21:16:40.584Z,8.70
2022-11-14T21:23:01.509Z,8.70
2022-11-14T21:29:22.446Z,8.70
2022-11-14T21:35:43.295Z,8.70
2022-11-14T21:42:03.826Z,8.80
2022-11-14T21:48:24.320Z,8.80
2022-11-14T21:54:45.191Z,8.70
2022-11-14T22:01:36.775Z,8.60
2022-11-14T22:07:57.465Z,8.60
2022-11-14T22:14:18.328Z,8.70
2022-11-14T22:20:39.320Z,8.70
2022-11-14T22:27:00.443Z,8.70
2022-11-14T22:33:21.602Z,8.70
2022-11-14T22:39:42.193Z,8.70
2022-11-14T22:46:03.512Z,8.60
2022-11-14T22:52:24.303Z,8.50
2022-11-14T22:58:46.088Z,8.60
2022-11-14T23:05:07.330Z,8.60
2022-11-14T23:11:30.128Z,8.70
2022-11-14T23:17:51.498Z,8.70
2022-11-14T23:24:14.390Z,8.70
2022-11-14T23:30:36.246Z,8.60
2022-11-14T23:36:57.186Z,8.70
2022-11-14T23:43:17.948Z,8.70
2022-11-14T23:49:38.675Z,8.70
2022-11-14T23:56:01.486Z,8.70
